createdAt,value
2022-12-01T00:02:01.275Z,25.77
2022-12-01T00:04:32.301Z,25.17
2022-12-01T00:07:01.774Z,25.83
2022-12-01T00:09:49.763Z,27.20
2022-12-01T00:12:20.338Z,25.97
2022-12-01T00:14:55.673Z,27.00
2022-12-01T00:17:29.889Z,26.07
2022-12-01T00:20:01.430Z,24.67
2022-12-01T00:22:32.292Z,24.90
2022-12-01T00:25:01.816Z,26.17
2022-12-01T00:27:32.493Z,24.23
2022-12-01T00:30:02.216Z,26.10
2022-12-01T00:32:33.137Z,27.40
2022-12-01T00:35:02.930Z,25.73
2022-12-01T00:37:35.766Z,27.13
2022-12-01T00:40:09.125Z,26.50
2022-12-01T00:42:38.417Z,26.60
2022-12-01T00:45:07.423Z,27.90
2022-12-01T00:47:35.051Z,27.63
2022-12-01T00:50:04.016Z,30.37
2022-12-01T00:52:31.531Z,28.30
2022-12-01T00:54:59.134Z,29.37
2022-12-01T00:57:26.708Z,29.90
2022-12-01T00:59:54.265Z,25.67
2022-12-01T01:02:22.499Z,27.87
2022-12-01T01:04:50.104Z,25.83
2022-12-01T01:07:17.953Z,24.90
2022-12-01T01:09:45.563Z,25.27
2022-12-01T01:12:13.290Z,25.23
2022-12-01T01:14:40.859Z,25.90
2022-12-01T01:17:08.568Z,27.70
2022-12-01T01:19:36.195Z,24.40
2022-12-01T01:22:04.388Z,23.90
2022-12-01T01:24:31.976Z,25.83
2022-12-01T01:26:59.878Z,22.83
2022-12-01T01:29:27.461Z,23.87
2022-12-01T01:31:55.130Z,26.37
2022-12-01T01:34:22.729Z,26.00
2022-12-01T01:36:50.597Z,22.50
2022-12-01T01:39:21.408Z,22.40
2022-12-01T01:41:49.102Z,24.70
2022-12-01T01:44:59.385Z,23.50
2022-12-01T01:47:40.825Z,23.50
2022-12-01T01:50:16.253Z,26.20
2022-12-01T01:52:59.334Z,26.80
2022-12-01T01:55:30.282Z,26.50
2022-12-01T01:57:58.489Z,22.27
2022-12-01T02:00:26.398Z,26.60
2022-12-01T02:02:57.536Z,23.70
2022-12-01T02:05:35.310Z,24.60
2022-12-01T02:08:06.499Z,23.40
2022-12-01T02:11:48.933Z,22.87
2022-12-01T02:15:03.398Z,21.90
2022-12-01T02:18:26.692Z,23.23
2022-12-01T02:21:54.472Z,21.00
2022-12-01T02:25:20.708Z,22.60
2022-12-01T02:28:35.120Z,21.90
2022-12-01T02:31:42.003Z,17.40
2022-12-01T02:34:44.945Z,16.57
2022-12-01T02:37:56.971Z,20.40
2022-12-01T02:41:10.421Z,19.83
2022-12-01T02:44:14.234Z,20.40
2022-12-01T02:47:05.299Z,21.23
2022-12-01T02:49:47.715Z,21.97
2022-12-01T02:52:18.946Z,21.67
2022-12-01T02:54:51.167Z,22.20
2022-12-01T02:57:24.359Z,23.30
2022-12-01T02:59:56.330Z,20.40
2022-12-01T03:03:21.715Z,20.87
2022-12-01T03:06:24.124Z,20.60
2022-12-01T03:09:41.587Z,21.70
2022-12-01T03:12:23.627Z,20.87
2022-12-01T03:15:15.315Z,18.10
2022-12-01T03:18:20.515Z,20.90
2022-12-01T03:21:10.461Z,21.50
2022-12-01T03:23:56.487Z,20.70
2022-12-01T03:26:30.401Z,20.03
2022-12-01T03:29:11.226Z,21.73
2022-12-01T03:32:03.443Z,23.80
2022-12-01T03:34:51.574Z,24.80
2022-12-01T03:37:53.376Z,21.33
2022-12-01T03:40:28.659Z,20.87
2022-12-01T03:43:10.544Z,20.90
2022-12-01T03:46:29.520Z,21.93
2022-12-01T03:48:57.543Z,21.93
2022-12-01T03:51:59.150Z,20.53
2022-12-01T03:55:07.984Z,21.53
2022-12-01T03:58:09.484Z,23.80
2022-12-01T04:00:38.424Z,22.37
2022-12-01T04:03:07.190Z,23.80
2022-12-01T04:05:36.186Z,24.67
2022-12-01T04:08:04.474Z,22.53
2022-12-01T04:10:33.171Z,23.80
2022-12-01T04:13:01.024Z,24.80
2022-12-01T04:15:29.055Z,25.37
2022-12-01T04:17:56.715Z,25.13
2022-12-01T04:20:24.350Z,23.30
2022-12-01T04:22:53.013Z,25.40
2022-12-01T04:25:20.857Z,24.97
2022-12-01T04:27:49.001Z,24.03
2022-12-01T04:30:17.512Z,22.03
2022-12-01T04:32:45.794Z,23.43
2022-12-01T04:35:13.821Z,22.07
2022-12-01T04:37:42.003Z,22.77
2022-12-01T04:40:11.105Z,21.57
2022-12-01T04:42:38.669Z,22.00
2022-12-01T04:45:07.365Z,21.83
2022-12-01T04:47:34.977Z,19.20
2022-12-01T04:50:02.546Z,24.33
2022-12-01T04:52:35.054Z,22.10
2022-12-01T04:55:05.462Z,23.23
2022-12-01T04:57:35.432Z,21.70
2022-12-01T05:00:13.063Z,21.83
2022-12-01T05:02:47.521Z,20.70
2022-12-01T05:05:15.454Z,20.67
2022-12-01T05:07:43.153Z,21.27
2022-12-01T05:10:14.236Z,21.40
2022-12-01T05:12:41.904Z,18.77
2022-12-01T05:15:10.294Z,19.63
2022-12-01T05:17:38.264Z,21.37
2022-12-01T05:20:37.891Z,22.47
2022-12-01T05:23:07.138Z,23.10
2022-12-01T05:25:37.529Z,24.20
2022-12-01T05:28:06.646Z,24.60
2022-12-01T05:30:34.348Z,24.60
2022-12-01T05:33:02.036Z,22.57
2022-12-01T05:35:29.690Z,21.03
2022-12-01T05:37:57.273Z,20.47
2022-12-01T05:40:24.876Z,17.93
2022-12-01T05:42:53.004Z,21.83
2022-12-01T05:45:20.573Z,20.90
2022-12-01T05:47:48.168Z,18.77
2022-12-01T05:50:16.673Z,24.80
2022-12-01T05:52:44.266Z,22.80
2022-12-01T05:55:11.977Z,23.90
2022-12-01T05:57:40.224Z,23.93
2022-12-01T06:00:10.101Z,23.33
2022-12-01T06:02:42.021Z,24.90
2022-12-01T06:05:12.388Z,23.90
2022-12-01T06:07:41.280Z,24.73
2022-12-01T06:10:11.218Z,24.80
2022-12-01T06:12:39.398Z,22.80
2022-12-01T06:15:10.454Z,25.60
2022-12-01T06:17:40.563Z,24.40
2022-12-01T06:20:11.480Z,23.53
2022-12-01T06:22:39.265Z,25.03
2022-12-01T06:25:08.425Z,25.83
2022-12-01T06:27:36.918Z,28.67
2022-12-01T06:30:07.089Z,29.67
2022-12-01T06:32:34.986Z,29.23
2022-12-01T06:35:03.356Z,28.80
2022-12-01T06:37:31.055Z,28.10
2022-12-01T06:39:58.646Z,30.30
2022-12-01T06:42:32.284Z,30.73
2022-12-01T06:44:59.920Z,30.70
2022-12-01T06:47:28.194Z,27.43
2022-12-01T06:49:55.767Z,28.70
2022-12-01T06:52:23.989Z,23.93
2022-12-01T06:54:51.556Z,26.80
2022-12-01T06:57:19.950Z,24.00
2022-12-01T06:59:48.284Z,23.80
2022-12-01T07:02:17.071Z,24.57
2022-12-01T07:04:44.723Z,24.87
2022-12-01T07:07:13.031Z,26.70
2022-12-01T07:09:40.867Z,23.00
2022-12-01T07:12:08.465Z,25.53
2022-12-01T07:14:36.798Z,23.60
2022-12-01T07:17:04.595Z,24.47
2022-12-01T07:19:32.258Z,25.10
2022-12-01T07:21:59.792Z,24.37
2022-12-01T07:24:27.470Z,22.17
2022-12-01T07:26:55.005Z,23.00
2022-12-01T07:29:22.647Z,23.03
2022-12-01T07:31:50.175Z,23.70
2022-12-01T07:34:17.871Z,22.80
2022-12-01T07:36:45.408Z,22.10
2022-12-01T07:39:12.981Z,20.57
2022-12-01T07:41:40.568Z,19.83
2022-12-01T07:44:11.162Z,21.70
2022-12-01T07:46:39.140Z,21.63
2022-12-01T07:49:10.566Z,21.60
2022-12-01T07:51:38.183Z,21.27
2022-12-01T07:54:06.960Z,21.37
2022-12-01T07:56:35.674Z,21.33
2022-12-01T07:59:03.344Z,22.57
2022-12-01T08:01:30.992Z,20.10
2022-12-01T08:04:00.485Z,21.40
2022-12-01T08:06:28.152Z,21.17
2022-12-01T08:08:56.452Z,19.87
2022-12-01T08:11:29.980Z,20.53
2022-12-01T08:13:58.055Z,20.30
2022-12-01T08:16:26.540Z,21.40
2022-12-01T08:18:54.949Z,17.57
2022-12-01T08:21:24.550Z,21.27
2022-12-01T08:23:58.531Z,23.17
2022-12-01T08:26:27.779Z,24.30
2022-12-01T08:28:55.712Z,22.80
2022-12-01T08:31:35.917Z,20.60
2022-12-01T08:34:07.212Z,22.07
2022-12-01T08:36:36.354Z,18.73
2022-12-01T08:39:04.870Z,18.00
2022-12-01T08:41:32.628Z,16.10
2022-12-01T08:44:01.359Z,16.90
2022-12-01T08:46:36.087Z,15.80
2022-12-01T08:49:06.790Z,16.33
2022-12-01T08:51:35.972Z,15.70
2022-12-01T08:54:04.868Z,15.33
2022-12-01T08:56:40.404Z,16.03
2022-12-01T08:59:09.292Z,17.13
2022-12-01T09:01:52.529Z,18.13
2022-12-01T09:04:33.371Z,17.47
2022-12-01T09:07:26.798Z,18.63
2022-12-01T09:09:58.055Z,18.37
2022-12-01T09:12:25.735Z,17.10
2022-12-01T09:14:53.331Z,16.90
2022-12-01T09:17:21.118Z,21.30
2022-12-01T09:19:48.921Z,20.80
2022-12-01T09:22:17.006Z,20.27
2022-12-01T09:24:44.666Z,19.63
2022-12-01T09:27:13.258Z,23.50
2022-12-01T09:29:40.850Z,21.57
2022-12-01T09:32:08.541Z,20.60
2022-12-01T09:34:36.116Z,20.90
2022-12-01T09:37:03.703Z,22.10
2022-12-01T09:39:31.447Z,22.80
2022-12-01T09:42:16.560Z,21.30
2022-12-01T09:44:57.273Z,18.97
2022-12-01T09:47:37.187Z,22.53
2022-12-01T09:50:24.263Z,21.27
2022-12-01T09:53:03.424Z,19.90
2022-12-01T09:55:35.205Z,21.87
2022-12-01T09:58:13.935Z,22.17
2022-12-01T10:00:51.785Z,22.87
2022-12-01T10:03:49.497Z,22.67
2022-12-01T10:06:50.046Z,19.73
2022-12-01T10:09:55.500Z,21.37
2022-12-01T10:12:31.344Z,20.20
2022-12-01T10:16:15.665Z,19.23
2022-12-01T10:19:26.258Z,19.97
2022-12-01T10:22:36.181Z,20.00
2022-12-01T10:25:45.261Z,20.33
2022-12-01T10:28:51.963Z,20.70
2022-12-01T10:31:55.371Z,19.47
2022-12-01T10:34:37.505Z,23.03
2022-12-01T10:37:15.911Z,21.17
2022-12-01T10:39:50.180Z,21.67
2022-12-01T10:42:42.674Z,24.00
2022-12-01T10:45:28.166Z,25.70
2022-12-01T10:48:22.306Z,25.07
2022-12-01T10:51:03.698Z,27.23
2022-12-01T10:53:35.691Z,26.00
2022-12-01T10:56:22.149Z,24.83
2022-12-01T10:59:05.305Z,26.10
2022-12-01T11:01:36.373Z,27.20
2022-12-01T11:04:51.377Z,28.50
2022-12-01T11:07:45.521Z,28.90
2022-12-01T11:10:30.708Z,26.00
2022-12-01T11:13:28.457Z,26.83
2022-12-01T11:16:00.822Z,27.50
2022-12-01T11:18:36.417Z,25.30
2022-12-01T11:21:28.633Z,25.00
2022-12-01T11:23:57.176Z,27.00
2022-12-01T11:26:34.732Z,27.90
2022-12-01T11:29:36.269Z,27.87
2022-12-01T11:32:40.140Z,27.23
2022-12-01T11:35:13.743Z,27.50
2022-12-01T11:38:27.689Z,27.87
2022-12-01T11:40:57.092Z,28.70
2022-12-01T11:43:42.607Z,28.53
2022-12-01T11:46:14.475Z,28.77
2022-12-01T11:48:57.209Z,29.00
2022-12-01T11:51:37.291Z,29.50
2022-12-01T11:54:25.873Z,30.10
2022-12-01T11:57:25.400Z,29.20
2022-12-01T11:59:43.136Z,31.67
2022-12-01T12:02:53.606Z,28.97
2022-12-01T12:06:45.091Z,31.20
2022-12-01T12:09:43.390Z,27.53
2022-12-01T12:12:58.564Z,30.77
2022-12-01T12:16:33.702Z,27.43
2022-12-01T12:20:07.073Z,29.07
2022-12-01T12:23:12.175Z,31.57
2022-12-01T12:26:20.331Z,29.80
2022-12-01T12:29:51.341Z,30.50
2022-12-01T12:33:07.947Z,35.67
2022-12-01T12:36:28.509Z,30.07
2022-12-01T12:39:48.793Z,29.20
2022-12-01T12:43:07.684Z,29.83
2022-12-01T12:46:32.896Z,30.80
2022-12-01T12:50:10.539Z,28.63
2022-12-01T12:52:51.712Z,28.97
2022-12-01T12:55:44.640Z,30.37
2022-12-01T12:58:40.046Z,30.73
2022-12-01T13:01:45.429Z,31.30
2022-12-01T13:04:54.083Z,28.40
2022-12-01T13:07:42.412Z,32.07
2022-12-01T13:10:44.615Z,30.53
2022-12-01T13:13:54.701Z,30.67
2022-12-01T13:16:38.073Z,32.47
2022-12-01T13:19:26.288Z,30.70
2022-12-01T13:21:56.355Z,32.00
2022-12-01T13:24:31.797Z,31.50
2022-12-01T13:27:25.940Z,33.30
2022-12-01T13:29:57.027Z,32.60
2022-12-01T13:32:46.314Z,32.80
2022-12-01T13:35:39.108Z,35.60
2022-12-01T13:38:33.728Z,33.40
2022-12-01T13:42:11.931Z,31.80
2022-12-01T13:44:46.150Z,37.07
2022-12-01T13:47:13.708Z,40.60
2022-12-01T13:49:53.442Z,48.60
2022-12-01T13:52:26.862Z,36.80
2022-12-01T13:55:09.631Z,34.77
2022-12-01T13:57:56.894Z,33.47
2022-12-01T14:00:35.111Z,37.50
2022-12-01T14:03:15.898Z,34.67
2022-12-01T14:06:08.131Z,33.00
2022-12-01T14:09:06.609Z,34.30
2022-12-01T14:11:35.904Z,34.03
2022-12-01T14:14:26.373Z,30.60
2022-12-01T14:17:00.979Z,34.23
2022-12-01T14:19:52.918Z,33.47
2022-12-01T14:22:45.763Z,33.90
2022-12-01T14:25:30.974Z,33.97
2022-12-01T14:28:12.297Z,30.60
2022-12-01T14:30:46.012Z,32.03
2022-12-01T14:34:19.235Z,33.90
2022-12-01T14:37:02.760Z,32.93
2022-12-01T14:39:39.225Z,33.73
2022-12-01T14:43:02.038Z,34.07
2022-12-01T14:46:10.155Z,32.93
2022-12-01T14:48:47.930Z,37.13
2022-12-01T14:51:33.972Z,37.10
2022-12-01T14:54:18.794Z,34.70
2022-12-01T14:57:07.475Z,38.40
2022-12-01T14:59:37.475Z,38.80
2022-12-01T15:02:12.320Z,38.83
2022-12-01T15:05:18.801Z,36.07
2022-12-01T15:08:18.642Z,39.23
2022-12-01T15:11:10.669Z,42.30
2022-12-01T15:13:55.760Z,40.13
2022-12-01T15:16:30.892Z,40.70
2022-12-01T15:18:59.090Z,37.63
2022-12-01T15:21:32.512Z,42.27
2022-12-01T15:24:28.667Z,38.47
2022-12-01T15:27:03.794Z,34.93
2022-12-01T15:29:47.014Z,34.33
2022-12-01T15:32:19.891Z,37.17
2022-12-01T15:34:54.543Z,36.10
2022-12-01T15:37:28.671Z,35.73
2022-12-01T15:43:40.035Z,34.20
2022-12-01T15:46:28.432Z,35.87
2022-12-01T15:49:29.908Z,36.60
2022-12-01T15:52:12.735Z,36.87
2022-12-01T15:54:40.666Z,34.47
2022-12-01T15:57:09.117Z,35.73
2022-12-01T15:59:51.569Z,36.53
2022-12-01T16:02:32.676Z,35.10
2022-12-01T16:05:35.999Z,35.60
2022-12-01T16:08:28.014Z,35.67
2022-12-01T16:11:21.626Z,35.53
2022-12-01T16:14:26.049Z,37.60
2022-12-01T16:16:54.317Z,36.40
2022-12-01T16:19:36.005Z,38.57
2022-12-01T16:22:18.879Z,37.70
2022-12-01T16:24:55.364Z,40.00
2022-12-01T16:27:31.682Z,37.77
2022-12-01T16:30:21.240Z,34.00
2022-12-01T16:32:50.362Z,36.73
2022-12-01T16:35:31.486Z,39.37
2022-12-01T16:38:22.062Z,35.40
2022-12-01T16:40:56.174Z,37.43
2022-12-01T16:43:28.748Z,38.87
2022-12-01T16:46:11.629Z,36.63
2022-12-01T16:48:39.550Z,42.73
2022-12-01T16:51:08.354Z,38.00
2022-12-01T16:53:35.969Z,36.90
2022-12-01T16:56:03.871Z,39.70
2022-12-01T16:58:32.158Z,36.90
2022-12-01T17:00:59.971Z,37.27
2022-12-01T17:03:29.176Z,37.00
2022-12-01T17:06:01.982Z,36.77
2022-12-01T17:08:29.947Z,37.50
2022-12-01T17:10:57.528Z,35.73
2022-12-01T17:13:25.190Z,37.60
2022-12-01T17:15:56.023Z,36.50
2022-12-01T17:18:24.867Z,38.00
2022-12-01T17:21:09.917Z,37.47
2022-12-01T17:23:39.929Z,39.53
2022-12-01T17:26:19.333Z,38.67
2022-12-01T17:28:48.174Z,40.70
2022-12-01T17:31:16.338Z,39.37
2022-12-01T17:33:44.216Z,37.03
2022-12-01T17:36:15.271Z,36.03
2022-12-01T17:38:47.032Z,39.20
2022-12-01T17:41:25.507Z,36.67
2022-12-01T17:43:53.164Z,35.93
2022-12-01T17:46:20.829Z,37.03
2022-12-01T17:48:48.825Z,37.77
2022-12-01T17:51:16.902Z,40.17
2022-12-01T17:53:44.845Z,37.90
2022-12-01T17:56:24.563Z,36.67
2022-12-01T17:58:52.838Z,36.90
2022-12-01T18:01:26.895Z,35.60
2022-12-01T18:03:59.142Z,37.20
2022-12-01T18:06:27.584Z,32.23
2022-12-01T18:08:57.532Z,36.80
2022-12-01T18:11:25.404Z,30.20
2022-12-01T18:13:53.670Z,31.40
2022-12-01T18:16:29.350Z,32.27
2022-12-01T18:19:01.518Z,31.80
2022-12-01T18:21:30.669Z,28.83
2022-12-01T18:24:04.198Z,28.07
2022-12-01T18:26:35.834Z,26.47
2022-12-01T18:29:11.331Z,29.50
2022-12-01T18:31:41.100Z,28.90
2022-12-01T18:34:12.493Z,30.17
2022-12-01T18:36:42.116Z,31.67
2022-12-01T18:39:12.041Z,29.17
2022-12-01T18:41:40.482Z,28.40
2022-12-01T18:44:08.924Z,32.80
2022-12-01T18:46:37.291Z,30.60
2022-12-01T18:49:06.787Z,31.20
2022-12-01T18:51:38.593Z,32.57
2022-12-01T18:54:12.741Z,31.87
2022-12-01T18:56:40.635Z,27.70
2022-12-01T18:59:13.740Z,27.60
2022-12-01T19:01:45.816Z,30.20
2022-12-01T19:04:16.773Z,31.33
2022-12-01T19:06:47.483Z,30.60
2022-12-01T19:09:17.582Z,32.30
2022-12-01T19:11:46.217Z,30.70
2022-12-01T19:14:19.763Z,31.30
2022-12-01T19:16:48.272Z,28.33
2022-12-01T19:19:16.161Z,30.27
2022-12-01T19:21:45.432Z,30.63
2022-12-01T19:24:13.682Z,27.97
2022-12-01T19:26:43.204Z,28.70
2022-12-01T19:29:11.800Z,28.57
2022-12-01T19:31:39.894Z,28.70
2022-12-01T19:34:08.097Z,28.10
2022-12-01T19:36:35.743Z,25.87
2022-12-01T19:39:07.704Z,24.53
2022-12-01T19:41:38.582Z,29.97
2022-12-01T19:44:06.490Z,28.37
2022-12-01T19:46:34.359Z,26.83
2022-12-01T19:49:03.019Z,25.93
2022-12-01T19:51:38.216Z,26.80
2022-12-01T19:54:18.143Z,27.50
2022-12-01T19:56:47.405Z,27.43
2022-12-01T19:59:15.902Z,24.93
2022-12-01T20:01:45.371Z,27.30
2022-12-01T20:04:14.069Z,27.13
2022-12-01T20:06:41.868Z,27.37
2022-12-01T20:09:09.812Z,27.70
2022-12-01T20:11:37.629Z,25.80
2022-12-01T20:14:09.872Z,25.77
2022-12-01T20:16:38.538Z,23.57
2022-12-01T20:19:09.041Z,24.20
2022-12-01T20:21:43.217Z,25.97
2022-12-01T20:24:20.016Z,25.70
2022-12-01T20:26:54.183Z,23.93
2022-12-01T20:29:29.484Z,23.43
2022-12-01T20:32:03.031Z,26.17
2022-12-01T20:34:36.189Z,22.90
2022-12-01T20:37:05.152Z,24.40
2022-12-01T20:39:35.248Z,24.27
2022-12-01T20:42:03.144Z,23.53
2022-12-01T20:44:31.114Z,27.17
2022-12-01T20:46:58.777Z,30.10
2022-12-01T20:49:36.227Z,33.10
2022-12-01T20:52:05.596Z,27.13
2022-12-01T20:54:37.309Z,27.37
2022-12-01T20:57:05.941Z,25.70
2022-12-01T20:59:35.888Z,26.50
2022-12-01T21:02:04.215Z,27.20
2022-12-01T21:04:31.904Z,28.73
2022-12-01T21:07:00.579Z,26.60
2022-12-01T21:09:28.404Z,26.20
2022-12-01T21:12:20.844Z,27.53
2022-12-01T21:15:28.126Z,27.00
2022-12-01T21:18:20.832Z,26.70
2022-12-01T21:21:01.679Z,27.30
2022-12-01T21:23:30.352Z,26.93
2022-12-01T21:25:58.741Z,27.47
2022-12-01T21:28:27.756Z,26.33
2022-12-01T21:31:16.084Z,27.87
2022-12-01T21:33:44.518Z,25.47
2022-12-01T21:36:28.834Z,25.40
2022-12-01T21:39:16.612Z,25.53
2022-12-01T21:41:44.748Z,27.57
2022-12-01T21:44:32.327Z,27.00
2022-12-01T21:47:23.025Z,26.37
2022-12-01T21:49:58.523Z,26.10
2022-12-01T21:52:40.522Z,27.47
2022-12-01T21:55:17.093Z,25.30
2022-12-01T21:57:51.280Z,24.60
2022-12-01T22:00:36.938Z,26.67
2022-12-01T22:03:40.304Z,27.87
2022-12-01T22:07:00.604Z,29.07
2022-12-01T22:09:37.033Z,28.37
2022-12-01T22:12:29.054Z,29.07
2022-12-01T22:15:32.962Z,27.70
2022-12-01T22:18:01.329Z,27.30
2022-12-01T22:20:29.701Z,28.57
2022-12-01T22:22:58.284Z,29.67
2022-12-01T22:25:28.489Z,29.60
2022-12-01T22:28:00.093Z,28.83
2022-12-01T22:30:27.907Z,27.97
2022-12-01T22:33:10.532Z,29.10
2022-12-01T22:35:49.235Z,28.33
2022-12-01T22:38:38.773Z,28.17
2022-12-01T22:41:21.427Z,29.60
2022-12-01T22:43:56.984Z,28.37
2022-12-01T22:46:35.351Z,31.20
2022-12-01T22:49:22.632Z,30.57
2022-12-01T22:52:22.626Z,25.23
2022-12-01T22:54:51.108Z,34.20
2022-12-01T22:57:35.152Z,27.97
2022-12-01T23:00:23.974Z,32.50
2022-12-01T23:02:56.470Z,32.67
2022-12-01T23:05:30.805Z,33.20
2022-12-01T23:07:58.848Z,31.03
2022-12-01T23:10:34.892Z,29.30
2022-12-01T23:13:23.954Z,32.10
2022-12-01T23:15:54.291Z,31.67
2022-12-01T23:18:32.122Z,34.77
2022-12-01T23:21:02.275Z,30.93
2022-12-01T23:23:37.723Z,28.90
2022-12-01T23:26:09.328Z,30.03
2022-12-01T23:28:41.402Z,29.80
2022-12-01T23:31:10.615Z,27.57
2022-12-01T23:33:38.543Z,23.77
2022-12-01T23:36:29.743Z,26.77
2022-12-01T23:39:10.414Z,27.40
2022-12-01T23:41:47.707Z,24.70
2022-12-01T23:44:42.127Z,27.97
2022-12-01T23:47:26.851Z,27.07
2022-12-01T23:50:18.752Z,29.20
2022-12-01T23:52:47.306Z,25.13
2022-12-01T23:55:30.712Z,26.90
2022-12-01T23:58:01.900Z,27.30
